sensor_id;sensor_type;location;lat;lon;timestamp;pressure;altitude;pressure_sealevel;temperature;humidity
20027;BME280;10174;42.688;23.344;2022-09-12T00:03:29;95123.00;;;14.81;83.17
20027;BME280;10174;42.688;23.344;2022-09-12T00:05:54;95116.06;;;14.74;83.71
20027;BME280;10174;42.688;23.344;2022-09-12T00:08:20;95132.72;;;14.82;83.98
20027;BME280;10174;42.688;23.344;2022-09-12T00:10:45;95128.78;;;14.74;83.71
20027;BME280;10174;42.688;23.344;2022-09-12T00:13:11;95147.84;;;14.83;84.31
20027;BME280;10174;42.688;23.344;2022-09-12T00:15:40;95142.59;;;14.72;84.13
20027;BME280;10174;42.688;23.344;2022-09-12T00:18:08;95140.88;;;14.57;83.64
20027;BME280;10174;42.688;23.344;2022-09-12T00:20:40;95149.25;;;14.61;84.06
20027;BME280;10174;42.688;23.344;2022-09-12T00:23:06;95123.22;;;14.46;83.62
20027;BME280;10174;42.688;23.344;2022-09-12T00:25:31;95120.22;;;14.48;83.54
20027;BME280;10174;42.688;23.344;2022-09-12T00:27:57;95152.59;;;14.72;83.70
20027;BME280;10174;42.688;23.344;2022-09-12T00:30:22;95135.97;;;14.65;82.77
20027;BME280;10174;42.688;23.344;2022-09-12T00:32:48;95140.53;;;14.64;82.58
20027;BME280;10174;42.688;23.344;2022-09-12T00:35:14;95144.78;;;14.70;82.64
20027;BME280;10174;42.688;23.344;2022-09-12T00:37:40;95131.94;;;14.62;82.72
20027;BME280;10174;42.688;23.344;2022-09-12T00:40:05;95142.16;;;14.65;82.26
20027;BME280;10174;42.688;23.344;2022-09-12T00:42:31;95134.03;;;14.65;81.73
20027;BME280;10174;42.688;23.344;2022-09-12T00:44:56;95073.78;;;14.27;82.00
20027;BME280;10174;42.688;23.344;2022-09-12T00:47:28;95145.22;;;14.58;81.89
20027;BME280;10174;42.688;23.344;2022-09-12T00:50:08;95081.34;;;14.05;82.25
20027;BME280;10174;42.688;23.344;2022-09-12T00:52:46;95151.03;;;14.47;82.18
20027;BME280;10174;42.688;23.344;2022-09-12T00:55:16;95144.69;;;14.37;82.50
20027;BME280;10174;42.688;23.344;2022-09-12T01:00:46;95127.56;;;14.23;83.24
20027;BME280;10174;42.688;23.344;2022-09-12T01:03:13;95125.41;;;14.25;83.11
20027;BME280;10174;42.688;23.344;2022-09-12T01:05:43;95146.59;;;14.37;82.37
20027;BME280;10174;42.688;23.344;2022-09-12T01:08:12;95140.94;;;14.33;82.16
20027;BME280;10174;42.688;23.344;2022-09-12T01:10:39;95120.56;;;14.22;82.38
20027;BME280;10174;42.688;23.344;2022-09-12T01:13:07;95125.22;;;14.16;82.47
20027;BME280;10174;42.688;23.344;2022-09-12T01:15:33;95121.66;;;14.21;82.79
20027;BME280;10174;42.688;23.344;2022-09-12T01:18:13;95126.03;;;14.17;82.61
20027;BME280;10174;42.688;23.344;2022-09-12T01:38:20;95123.97;;;14.08;82.58
20027;BME280;10174;42.688;23.344;2022-09-12T01:43:43;95126.50;;;14.00;82.89
20027;BME280;10174;42.688;23.344;2022-09-12T01:46:18;95098.25;;;13.92;82.84
20027;BME280;10174;42.688;23.344;2022-09-12T01:49:01;95123.22;;;14.03;83.24
20027;BME280;10174;42.688;23.344;2022-09-12T01:51:38;95115.59;;;13.86;82.88
20027;BME280;10174;42.688;23.344;2022-09-12T01:54:36;95125.81;;;13.89;82.85
20027;BME280;10174;42.688;23.344;2022-09-12T01:57:09;95121.50;;;13.88;82.53
20027;BME280;10174;42.688;23.344;2022-09-12T01:59:41;95083.00;;;13.58;83.00
20027;BME280;10174;42.688;23.344;2022-09-12T02:02:13;95027.72;;;13.26;82.85
20027;BME280;10174;42.688;23.344;2022-09-12T02:04:50;95116.75;;;13.80;82.65
20027;BME280;10174;42.688;23.344;2022-09-12T02:10:16;95108.84;;;13.64;82.89
20027;BME280;10174;42.688;23.344;2022-09-12T02:12:51;95137.31;;;13.76;81.97
20027;BME280;10174;42.688;23.344;2022-09-12T02:15:19;95130.91;;;13.71;82.24
20027;BME280;10174;42.688;23.344;2022-09-12T02:17:49;95131.69;;;13.72;82.53
20027;BME280;10174;42.688;23.344;2022-09-12T02:20:22;95126.81;;;13.74;82.39
20027;BME280;10174;42.688;23.344;2022-09-12T02:22:51;95116.53;;;13.52;82.00
20027;BME280;10174;42.688;23.344;2022-09-12T02:25:19;95119.41;;;13.61;82.03
20027;BME280;10174;42.688;23.344;2022-09-12T02:28:07;95123.13;;;13.65;82.23
20027;BME280;10174;42.688;23.344;2022-09-12T02:30:39;95108.38;;;13.57;82.09
20027;BME280;10174;42.688;23.344;2022-09-12T02:35:57;95129.50;;;13.74;81.89
20027;BME280;10174;42.688;23.344;2022-09-12T02:38:36;95107.34;;;13.53;81.51
20027;BME280;10174;42.688;23.344;2022-09-12T02:41:06;95113.75;;;13.57;81.66
20027;BME280;10174;42.688;23.344;2022-09-12T02:43:32;95103.91;;;13.47;81.37
20027;BME280;10174;42.688;23.344;2022-09-12T02:45:57;95117.63;;;13.51;81.54
20027;BME280;10174;42.688;23.344;2022-09-12T02:48:29;95118.16;;;13.53;81.52
20027;BME280;10174;42.688;23.344;2022-09-12T02:50:57;95109.00;;;13.49;81.28
20027;BME280;10174;42.688;23.344;2022-09-12T02:53:25;95122.34;;;13.64;80.74
20027;BME280;10174;42.688;23.344;2022-09-12T02:55:51;95134.22;;;13.63;81.33
20027;BME280;10174;42.688;23.344;2022-09-12T02:58:20;95119.88;;;13.44;81.29
20027;BME280;10174;42.688;23.344;2022-09-12T03:06:27;95115.34;;;13.34;81.20
20027;BME280;10174;42.688;23.344;2022-09-12T03:08:59;95142.72;;;13.51;81.14
20027;BME280;10174;42.688;23.344;2022-09-12T03:11:35;95138.41;;;13.50;81.11
20027;BME280;10174;42.688;23.344;2022-09-12T03:20:09;95145.22;;;13.43;81.58
20027;BME280;10174;42.688;23.344;2022-09-12T03:25:44;95136.56;;;13.46;82.17
20027;BME280;10174;42.688;23.344;2022-09-12T03:27:58;95140.41;;;13.40;82.00
20027;BME280;10174;42.688;23.344;2022-09-12T03:30:24;95057.72;;;12.95;81.73
20027;BME280;10174;42.688;23.344;2022-09-12T03:32:52;95137.72;;;13.34;82.06
20027;BME280;10174;42.688;23.344;2022-09-12T03:35:21;95147.44;;;13.35;82.15
20027;BME280;10174;42.688;23.344;2022-09-12T03:37:48;95116.34;;;13.14;82.54
20027;BME280;10174;42.688;23.344;2022-09-12T03:40:14;95130.75;;;13.28;82.66
20027;BME280;10174;42.688;23.344;2022-09-12T03:42:40;95123.06;;;13.16;82.68
20027;BME280;10174;42.688;23.344;2022-09-12T03:45:06;95151.25;;;13.29;82.48
20027;BME280;10174;42.688;23.344;2022-09-12T03:47:32;95062.47;;;12.74;82.34
20027;BME280;10174;42.688;23.344;2022-09-12T03:49:57;95150.69;;;13.32;82.17
20027;BME280;10174;42.688;23.344;2022-09-12T03:52:22;95133.28;;;13.19;82.46
20027;BME280;10174;42.688;23.344;2022-09-12T03:54:48;95138.41;;;13.16;82.25
20027;BME280;10174;42.688;23.344;2022-09-12T03:57:14;95145.56;;;13.31;82.22
20027;BME280;10174;42.688;23.344;2022-09-12T03:59:39;95151.81;;;13.26;82.27
20027;BME280;10174;42.688;23.344;2022-09-12T04:02:04;95140.56;;;13.19;82.39
20027;BME280;10174;42.688;23.344;2022-09-12T04:04:30;95149.63;;;13.28;82.94
20027;BME280;10174;42.688;23.344;2022-09-12T04:06:56;95096.97;;;13.07;82.21
20027;BME280;10174;42.688;23.344;2022-09-12T04:09:21;95143.88;;;13.45;81.60
20027;BME280;10174;42.688;23.344;2022-09-12T04:11:47;95135.56;;;13.36;81.62
20027;BME280;10174;42.688;23.344;2022-09-12T04:14:12;95071.22;;;12.90;81.69
20027;BME280;10174;42.688;23.344;2022-09-12T04:16:37;95134.47;;;13.38;81.70
20027;BME280;10174;42.688;23.344;2022-09-12T04:19:03;95136.56;;;13.46;81.35
20027;BME280;10174;42.688;23.344;2022-09-12T04:21:29;95151.56;;;13.57;81.00
20027;BME280;10174;42.688;23.344;2022-09-12T04:23:55;95146.13;;;13.62;80.69
20027;BME280;10174;42.688;23.344;2022-09-12T04:26:21;95153.56;;;13.70;80.04
20027;BME280;10174;42.688;23.344;2022-09-12T04:28:46;95164.47;;;13.60;80.40
20027;BME280;10174;42.688;23.344;2022-09-12T04:31:15;95166.94;;;13.57;80.51
20027;BME280;10174;42.688;23.344;2022-09-12T04:33:47;95143.03;;;13.45;80.53
20027;BME280;10174;42.688;23.344;2022-09-12T04:36:17;95158.00;;;13.61;80.63
20027;BME280;10174;42.688;23.344;2022-09-12T04:38:44;95160.22;;;13.54;80.21
20027;BME280;10174;42.688;23.344;2022-09-12T04:43:42;95152.38;;;13.58;80.56
20027;BME280;10174;42.688;23.344;2022-09-12T04:46:10;95152.03;;;13.64;80.66
20027;BME280;10174;42.688;23.344;2022-09-12T04:48:36;95156.44;;;13.55;80.29
20027;BME280;10174;42.688;23.344;2022-09-12T04:51:22;95156.91;;;13.62;80.21
20027;BME280;10174;42.688;23.344;2022-09-12T04:53:51;95170.84;;;13.69;80.25
20027;BME280;10174;42.688;23.344;2022-09-12T04:56:18;95168.13;;;13.75;80.12
20027;BME280;10174;42.688;23.344;2022-09-12T04:58:44;95171.72;;;13.89;79.74
20027;BME280;10174;42.688;23.344;2022-09-12T05:01:16;95162.59;;;13.85;79.69
20027;BME280;10174;42.688;23.344;2022-09-12T05:03:43;95171.22;;;13.87;80.32
20027;BME280;10174;42.688;23.344;2022-09-12T05:06:22;95172.03;;;13.87;79.69
20027;BME280;10174;42.688;23.344;2022-09-12T05:08:49;95082.09;;;13.44;79.23
20027;BME280;10174;42.688;23.344;2022-09-12T05:11:17;95081.03;;;13.40;78.82
20027;BME280;10174;42.688;23.344;2022-09-12T05:13:43;95142.78;;;13.95;78.53
20027;BME280;10174;42.688;23.344;2022-09-12T05:16:10;95168.00;;;14.09;77.96
20027;BME280;10174;42.688;23.344;2022-09-12T05:18:36;95177.13;;;14.13;78.20
20027;BME280;10174;42.688;23.344;2022-09-12T05:21:05;95166.69;;;14.06;77.26
20027;BME280;10174;42.688;23.344;2022-09-12T05:23:31;95171.91;;;14.22;76.97
20027;BME280;10174;42.688;23.344;2022-09-12T05:25:59;95170.75;;;14.28;77.21
20027;BME280;10174;42.688;23.344;2022-09-12T05:28:29;95129.09;;;14.10;76.61
20027;BME280;10174;42.688;23.344;2022-09-12T05:31:04;95171.16;;;14.35;76.86
20027;BME280;10174;42.688;23.344;2022-09-12T05:33:31;95165.94;;;14.44;76.64
20027;BME280;10174;42.688;23.344;2022-09-12T05:35:57;95167.38;;;14.36;76.63
20027;BME280;10174;42.688;23.344;2022-09-12T05:38:23;95170.84;;;14.42;76.33
20027;BME280;10174;42.688;23.344;2022-09-12T05:40:53;95165.75;;;14.35;76.26
20027;BME280;10174;42.688;23.344;2022-09-12T05:43:19;95180.28;;;14.45;76.25
20027;BME280;10174;42.688;23.344;2022-09-12T05:45:45;95181.66;;;14.42;76.19
20027;BME280;10174;42.688;23.344;2022-09-12T05:48:10;95162.72;;;14.42;75.97
20027;BME280;10174;42.688;23.344;2022-09-12T05:50:35;95168.41;;;14.59;75.36
20027;BME280;10174;42.688;23.344;2022-09-12T05:53:01;95183.16;;;14.72;74.88
20027;BME280;10174;42.688;23.344;2022-09-12T05:55:26;95178.69;;;14.82;74.84
20027;BME280;10174;42.688;23.344;2022-09-12T05:57:52;95153.81;;;14.79;73.90
20027;BME280;10174;42.688;23.344;2022-09-12T06:00:18;95075.94;;;14.43;73.68
20027;BME280;10174;42.688;23.344;2022-09-12T06:02:50;95147.97;;;14.91;73.40
20027;BME280;10174;42.688;23.344;2022-09-12T06:05:16;95151.56;;;15.06;73.05
20027;BME280;10174;42.688;23.344;2022-09-12T06:07:44;95158.00;;;15.24;72.45
20027;BME280;10174;42.688;23.344;2022-09-12T06:10:10;95156.63;;;15.26;73.00
20027;BME280;10174;42.688;23.344;2022-09-12T06:12:36;95154.88;;;15.49;72.51
20027;BME280;10174;42.688;23.344;2022-09-12T06:15:01;95133.03;;;15.60;72.08
20027;BME280;10174;42.688;23.344;2022-09-12T06:17:27;95140.38;;;15.59;71.91
20027;BME280;10174;42.688;23.344;2022-09-12T06:19:52;95159.34;;;15.73;71.40
20027;BME280;10174;42.688;23.344;2022-09-12T06:22:17;95148.50;;;15.73;71.48
20027;BME280;10174;42.688;23.344;2022-09-12T06:24:44;95154.38;;;15.80;71.70
20027;BME280;10174;42.688;23.344;2022-09-12T06:27:09;95121.78;;;15.53;71.78
20027;BME280;10174;42.688;23.344;2022-09-12T06:29:34;95160.53;;;15.67;72.00
20027;BME280;10174;42.688;23.344;2022-09-12T06:32:01;95161.13;;;15.64;72.71
20027;BME280;10174;42.688;23.344;2022-09-12T06:34:26;95180.16;;;15.73;72.41
20027;BME280;10174;42.688;23.344;2022-09-12T06:36:52;95159.94;;;15.70;72.08
20027;BME280;10174;42.688;23.344;2022-09-12T06:39:20;95158.91;;;15.66;71.90
20027;BME280;10174;42.688;23.344;2022-09-12T06:41:48;95164.06;;;15.81;71.82
20027;BME280;10174;42.688;23.344;2022-09-12T06:44:16;95146.13;;;15.99;71.18
20027;BME280;10174;42.688;23.344;2022-09-12T06:46:42;95176.53;;;16.10;70.95
20027;BME280;10174;42.688;23.344;2022-09-12T06:49:08;95188.88;;;16.16;71.45
20027;BME280;10174;42.688;23.344;2022-09-12T06:51:34;95170.09;;;16.48;70.13
20027;BME280;10174;42.688;23.344;2022-09-12T06:54:03;95168.91;;;16.40;70.05
20027;BME280;10174;42.688;23.344;2022-09-12T06:56:28;95176.22;;;16.26;70.29
20027;BME280;10174;42.688;23.344;2022-09-12T06:58:55;95176.63;;;16.05;70.66
20027;BME280;10174;42.688;23.344;2022-09-12T07:01:27;95189.47;;;16.13;70.57
20027;BME280;10174;42.688;23.344;2022-09-12T07:03:56;95189.06;;;16.20;70.56
20027;BME280;10174;42.688;23.344;2022-09-12T07:06:24;95073.69;;;15.77;70.06
20027;BME280;10174;42.688;23.344;2022-09-12T07:08:54;95181.22;;;16.46;70.05
20027;BME280;10174;42.688;23.344;2022-09-12T07:11:24;95191.34;;;16.54;69.94
20027;BME280;10174;42.688;23.344;2022-09-12T07:13:54;95189.88;;;16.34;69.64
20027;BME280;10174;42.688;23.344;2022-09-12T07:16:20;95191.56;;;16.30;69.70
20027;BME280;10174;42.688;23.344;2022-09-12T07:18:50;95186.97;;;16.31;70.16
20027;BME280;10174;42.688;23.344;2022-09-12T07:21:16;95163.59;;;16.07;69.50
20027;BME280;10174;42.688;23.344;2022-09-12T07:23:41;95173.41;;;16.31;68.73
20027;BME280;10174;42.688;23.344;2022-09-12T07:26:12;95166.75;;;16.51;67.62
20027;BME280;10174;42.688;23.344;2022-09-12T07:28:37;95183.28;;;16.77;67.54
20027;BME280;10174;42.688;23.344;2022-09-12T07:31:14;95192.09;;;16.97;65.98
20027;BME280;10174;42.688;23.344;2022-09-12T07:33:41;95177.66;;;16.87;65.98
20027;BME280;10174;42.688;23.344;2022-09-12T07:36:11;95187.16;;;16.99;66.30
20027;BME280;10174;42.688;23.344;2022-09-12T07:38:37;95205.06;;;17.45;65.08
20027;BME280;10174;42.688;23.344;2022-09-12T07:41:14;95180.63;;;17.22;63.58
20027;BME280;10174;42.688;23.344;2022-09-12T07:43:41;95159.66;;;17.14;63.53
20027;BME280;10174;42.688;23.344;2022-09-12T07:46:07;95182.84;;;17.20;63.90
20027;BME280;10174;42.688;23.344;2022-09-12T07:48:33;95184.22;;;17.32;63.27
20027;BME280;10174;42.688;23.344;2022-09-12T07:51:00;95170.13;;;17.30;62.59
20027;BME280;10174;42.688;23.344;2022-09-12T07:53:30;95112.44;;;17.24;61.94
20027;BME280;10174;42.688;23.344;2022-09-12T07:55:56;95179.41;;;17.83;61.06
20027;BME280;10174;42.688;23.344;2022-09-12T07:58:22;95184.31;;;18.03;60.97
20027;BME280;10174;42.688;23.344;2022-09-12T08:00:48;95190.63;;;18.21;60.17
20027;BME280;10174;42.688;23.344;2022-09-12T08:03:13;95194.16;;;18.22;59.28
20027;BME280;10174;42.688;23.344;2022-09-12T08:05:39;95172.91;;;17.92;59.26
20027;BME280;10174;42.688;23.344;2022-09-12T08:08:05;95182.69;;;17.93;59.84
20027;BME280;10174;42.688;23.344;2022-09-12T08:10:30;95187.72;;;18.18;59.31
20027;BME280;10174;42.688;23.344;2022-09-12T08:12:56;95201.28;;;18.09;59.35
20027;BME280;10174;42.688;23.344;2022-09-12T08:15:22;95185.31;;;17.85;60.00
20027;BME280;10174;42.688;23.344;2022-09-12T08:17:47;95185.09;;;17.72;60.36
20027;BME280;10174;42.688;23.344;2022-09-12T08:20:13;95169.16;;;17.79;60.51
20027;BME280;10174;42.688;23.344;2022-09-12T08:22:38;95193.09;;;18.00;60.11
20027;BME280;10174;42.688;23.344;2022-09-12T08:25:05;95124.59;;;17.49;60.17
20027;BME280;10174;42.688;23.344;2022-09-12T08:27:31;95180.72;;;18.25;60.33
20027;BME280;10174;42.688;23.344;2022-09-12T08:29:56;95187.53;;;18.63;60.22
20027;BME280;10174;42.688;23.344;2022-09-12T08:32:22;95181.47;;;18.83;59.15
20027;BME280;10174;42.688;23.344;2022-09-12T08:34:47;95188.28;;;18.46;60.87
20027;BME280;10174;42.688;23.344;2022-09-12T08:37:13;95166.78;;;18.18;60.51
20027;BME280;10174;42.688;23.344;2022-09-12T08:39:38;95101.88;;;18.25;59.60
20027;BME280;10174;42.688;23.344;2022-09-12T08:42:05;95171.59;;;19.05;58.72
20027;BME280;10174;42.688;23.344;2022-09-12T08:49:58;95187.25;;;18.24;59.78
20027;BME280;10174;42.688;23.344;2022-09-12T08:54:51;95178.47;;;19.02;57.08
20027;BME280;10174;42.688;23.344;2022-09-12T08:57:16;95169.63;;;19.40;57.48
20027;BME280;10174;42.688;23.344;2022-09-12T08:59:44;95100.50;;;19.15;56.03
20027;BME280;10174;42.688;23.344;2022-09-12T09:10:45;95172.22;;;19.37;56.29
20027;BME280;10174;42.688;23.344;2022-09-12T09:13:27;95165.34;;;19.96;53.69
20027;BME280;10174;42.688;23.344;2022-09-12T09:16:31;95069.88;;;19.27;53.30
20027;BME280;10174;42.688;23.344;2022-09-12T09:19:05;95165.78;;;20.06;52.11
20027;BME280;10174;42.688;23.344;2022-09-12T09:21:40;95087.34;;;20.12;50.99
20027;BME280;10174;42.688;23.344;2022-09-12T09:24:13;95133.91;;;20.88;50.03
20027;BME280;10174;42.688;23.344;2022-09-12T09:26:50;95146.94;;;21.03;50.77
20027;BME280;10174;42.688;23.344;2022-09-12T09:29:24;95148.47;;;21.46;49.41
20027;BME280;10174;42.688;23.344;2022-09-12T09:31:53;95063.16;;;21.62;46.90
20027;BME280;10174;42.688;23.344;2022-09-12T09:34:38;95136.03;;;22.40;45.51
20027;BME280;10174;42.688;23.344;2022-09-12T09:37:20;95143.41;;;22.77;45.60
20027;BME280;10174;42.688;23.344;2022-09-12T09:45:10;95139.19;;;22.67;44.79
20027;BME280;10174;42.688;23.344;2022-09-12T09:47:37;95118.44;;;22.41;45.53
20027;BME280;10174;42.688;23.344;2022-09-12T09:50:02;95132.25;;;22.45;45.46
20027;BME280;10174;42.688;23.344;2022-09-12T09:52:28;95131.69;;;23.61;43.47
20027;BME280;10174;42.688;23.344;2022-09-12T09:54:59;95126.97;;;23.46;44.32
20027;BME280;10174;42.688;23.344;2022-09-12T10:00:11;95116.38;;;24.56;41.25
20027;BME280;10174;42.688;23.344;2022-09-12T10:02:59;95117.16;;;24.21;41.46
20027;BME280;10174;42.688;23.344;2022-09-12T10:05:25;95110.50;;;24.74;40.72
20027;BME280;10174;42.688;23.344;2022-09-12T10:07:51;95121.31;;;24.15;42.98
20027;BME280;10174;42.688;23.344;2022-09-12T10:10:18;95117.19;;;25.12;39.13
20027;BME280;10174;42.688;23.344;2022-09-12T10:12:44;95118.84;;;25.75;37.01
20027;BME280;10174;42.688;23.344;2022-09-12T10:15:30;95114.25;;;25.20;38.46
20027;BME280;10174;42.688;23.344;2022-09-12T10:17:56;95118.34;;;26.16;37.11
20027;BME280;10174;42.688;23.344;2022-09-12T10:20:41;95131.63;;;24.53;41.97
20027;BME280;10174;42.688;23.344;2022-09-12T10:25:47;95026.63;;;23.57;41.13
20027;BME280;10174;42.688;23.344;2022-09-12T10:28:32;95122.31;;;23.18;44.93
20027;BME280;10174;42.688;23.344;2022-09-12T10:31:00;95110.78;;;23.41;43.94
20027;BME280;10174;42.688;23.344;2022-09-12T10:33:27;95119.06;;;24.88;40.68
20027;BME280;10174;42.688;23.344;2022-09-12T10:35:54;95110.19;;;23.19;43.70
20027;BME280;10174;42.688;23.344;2022-09-12T10:38:25;95086.56;;;22.86;43.75
20027;BME280;10174;42.688;23.344;2022-09-12T10:41:02;95128.72;;;23.10;43.28
20027;BME280;10174;42.688;23.344;2022-09-12T10:43:43;95126.13;;;23.29;41.85
20027;BME280;10174;42.688;23.344;2022-09-12T10:48:41;95122.16;;;24.51;38.30
20027;BME280;10174;42.688;23.344;2022-09-12T10:51:27;95119.97;;;24.92;37.11
20027;BME280;10174;42.688;23.344;2022-09-12T10:53:56;95126.81;;;25.60;36.07
20027;BME280;10174;42.688;23.344;2022-09-12T11:01:59;95127.53;;;23.83;40.15
20027;BME280;10174;42.688;23.344;2022-09-12T11:21:25;95120.28;;;22.90;44.32
20027;BME280;10174;42.688;23.344;2022-09-12T11:40:10;95133.81;;;21.97;45.63
20027;BME280;10174;42.688;23.344;2022-09-12T11:42:43;95121.19;;;22.66;44.12
20027;BME280;10174;42.688;23.344;2022-09-12T11:45:21;95115.25;;;21.44;47.44
20027;BME280;10174;42.688;23.344;2022-09-12T11:47:52;95122.16;;;21.42;46.14
20027;BME280;10174;42.688;23.344;2022-09-12T11:50:24;95126.28;;;22.06;44.28
20027;BME280;10174;42.688;23.344;2022-09-12T11:52:52;95105.34;;;22.22;44.37
20027;BME280;10174;42.688;23.344;2022-09-12T11:55:25;95133.06;;;22.99;43.40
20027;BME280;10174;42.688;23.344;2022-09-12T11:57:54;95097.13;;;22.22;42.85
20027;BME280;10174;42.688;23.344;2022-09-12T12:00:46;95128.31;;;22.83;42.82
20027;BME280;10174;42.688;23.344;2022-09-12T12:03:19;95121.50;;;21.78;45.47
20027;BME280;10174;42.688;23.344;2022-09-12T12:06:09;95119.16;;;21.56;45.81
20027;BME280;10174;42.688;23.344;2022-09-12T12:08:38;95113.69;;;21.56;46.80
20027;BME280;10174;42.688;23.344;2022-09-12T12:11:05;95103.63;;;21.47;46.69
20027;BME280;10174;42.688;23.344;2022-09-12T12:13:37;95106.75;;;21.25;47.96
20027;BME280;10174;42.688;23.344;2022-09-12T12:19:01;95112.06;;;21.09;46.63
20027;BME280;10174;42.688;23.344;2022-09-12T12:36:56;95101.31;;;19.81;50.55
20027;BME280;10174;42.688;23.344;2022-09-12T12:44:59;95096.00;;;20.14;50.60
20027;BME280;10174;42.688;23.344;2022-09-12T12:47:38;95126.50;;;19.60;49.72
20027;BME280;10174;42.688;23.344;2022-09-12T12:50:12;95114.94;;;19.81;50.14
20027;BME280;10174;42.688;23.344;2022-09-12T12:52:52;95121.44;;;19.41;51.54
20027;BME280;10174;42.688;23.344;2022-09-12T12:55:34;95108.66;;;19.07;51.29
20027;BME280;10174;42.688;23.344;2022-09-12T12:58:04;95118.91;;;19.10;52.11
20027;BME280;10174;42.688;23.344;2022-09-12T13:00:36;95096.28;;;19.35;52.19
20027;BME280;10174;42.688;23.344;2022-09-12T13:05:51;95112.47;;;19.32;52.78
20027;BME280;10174;42.688;23.344;2022-09-12T13:10:52;95123.41;;;18.88;53.56
20027;BME280;10174;42.688;23.344;2022-09-12T13:14:30;95108.50;;;18.85;54.13
20027;BME280;10174;42.688;23.344;2022-09-12T13:16:50;95097.91;;;19.19;54.28
20027;BME280;10174;42.688;23.344;2022-09-12T13:19:31;95024.91;;;19.03;52.00
20027;BME280;10174;42.688;23.344;2022-09-12T13:22:04;95108.25;;;19.52;52.53
20027;BME280;10174;42.688;23.344;2022-09-12T13:24:30;95119.50;;;19.42;52.68
20027;BME280;10174;42.688;23.344;2022-09-12T13:26:55;95020.28;;;18.78;51.93
20027;BME280;10174;42.688;23.344;2022-09-12T13:29:23;95098.09;;;19.14;52.92
20027;BME280;10174;42.688;23.344;2022-09-12T13:31:57;95096.34;;;19.00;51.96
20027;BME280;10174;42.688;23.344;2022-09-12T13:34:30;95096.00;;;19.02;51.95
20027;BME280;10174;42.688;23.344;2022-09-12T13:43:14;95095.19;;;19.19;51.45
20027;BME280;10174;42.688;23.344;2022-09-12T13:45:44;95089.97;;;18.88;52.81
20027;BME280;10174;42.688;23.344;2022-09-12T13:48:19;95083.03;;;19.08;52.76
20027;BME280;10174;42.688;23.344;2022-09-12T13:50:54;95081.66;;;19.49;52.58
20027;BME280;10174;42.688;23.344;2022-09-12T13:53:23;95094.09;;;19.67;51.93
20027;BME280;10174;42.688;23.344;2022-09-12T13:55:52;95068.72;;;19.46;51.86
20027;BME280;10174;42.688;23.344;2022-09-12T13:58:25;95007.63;;;19.08;50.93
20027;BME280;10174;42.688;23.344;2022-09-12T14:03:33;95086.50;;;19.34;50.54
20027;BME280;10174;42.688;23.344;2022-09-12T14:06:21;95107.16;;;19.44;50.11
20027;BME280;10174;42.688;23.344;2022-09-12T14:08:47;95086.53;;;19.26;50.63
20027;BME280;10174;42.688;23.344;2022-09-12T14:11:24;95100.41;;;19.50;50.43
20027;BME280;10174;42.688;23.344;2022-09-12T14:13:51;95099.13;;;19.56;50.22
20027;BME280;10174;42.688;23.344;2022-09-12T14:16:17;95085.31;;;19.62;50.32
20027;BME280;10174;42.688;23.344;2022-09-12T14:18:46;94999.25;;;19.22;50.54
20027;BME280;10174;42.688;23.344;2022-09-12T14:23:54;95113.72;;;19.34;51.88
20027;BME280;10174;42.688;23.344;2022-09-12T14:26:22;95088.63;;;19.20;52.06
20027;BME280;10174;42.688;23.344;2022-09-12T14:28:48;95077.94;;;19.06;52.78
20027;BME280;10174;42.688;23.344;2022-09-12T14:31:23;95092.47;;;19.28;52.42
20027;BME280;10174;42.688;23.344;2022-09-12T14:36:49;95101.91;;;19.30;52.17
20027;BME280;10174;42.688;23.344;2022-09-12T14:39:32;95101.91;;;19.30;52.80
20027;BME280;10174;42.688;23.344;2022-09-12T14:42:05;95102.84;;;19.34;52.65
20027;BME280;10174;42.688;23.344;2022-09-12T14:44:32;95099.97;;;19.39;53.27
20027;BME280;10174;42.688;23.344;2022-09-12T14:47:12;95100.25;;;19.47;52.71
20027;BME280;10174;42.688;23.344;2022-09-12T14:49:38;95109.13;;;19.26;52.38
20027;BME280;10174;42.688;23.344;2022-09-12T14:52:07;95103.50;;;19.31;52.00
20027;BME280;10174;42.688;23.344;2022-09-12T14:54:53;95093.59;;;19.18;52.05
20027;BME280;10174;42.688;23.344;2022-09-12T14:57:34;95106.56;;;18.95;53.34
20027;BME280;10174;42.688;23.344;2022-09-12T15:02:41;95004.94;;;18.12;54.38
20027;BME280;10174;42.688;23.344;2022-09-12T15:07:36;95107.66;;;18.50;54.79
20027;BME280;10174;42.688;23.344;2022-09-12T15:15:32;95104.44;;;18.30;55.85
20027;BME280;10174;42.688;23.344;2022-09-12T15:17:58;95100.44;;;18.28;56.09
20027;BME280;10174;42.688;23.344;2022-09-12T15:20:24;95060.72;;;17.92;56.32
20027;BME280;10174;42.688;23.344;2022-09-12T15:22:50;95091.63;;;18.22;56.60
20027;BME280;10174;42.688;23.344;2022-09-12T15:25:16;95094.06;;;18.32;56.59
20027;BME280;10174;42.688;23.344;2022-09-12T15:27:42;95081.69;;;18.09;56.76
20027;BME280;10174;42.688;23.344;2022-09-12T15:30:08;95106.84;;;18.23;57.11
20027;BME280;10174;42.688;23.344;2022-09-12T15:32:35;95081.84;;;18.04;56.87
20027;BME280;10174;42.688;23.344;2022-09-12T15:35:01;95103.44;;;18.09;57.33
20027;BME280;10174;42.688;23.344;2022-09-12T15:37:27;95093.69;;;18.16;57.25
20027;BME280;10174;42.688;23.344;2022-09-12T15:39:53;95112.28;;;18.23;57.37
20027;BME280;10174;42.688;23.344;2022-09-12T15:42:26;95086.84;;;18.19;57.28
20027;BME280;10174;42.688;23.344;2022-09-12T15:44:53;95091.94;;;18.12;56.90
20027;BME280;10174;42.688;23.344;2022-09-12T15:47:18;95082.50;;;18.18;56.67
20027;BME280;10174;42.688;23.344;2022-09-12T15:49:44;95077.56;;;18.20;55.80
20027;BME280;10174;42.688;23.344;2022-09-12T15:52:14;95090.38;;;18.28;55.84
20027;BME280;10174;42.688;23.344;2022-09-12T15:54:39;95081.97;;;17.98;56.78